Hill Air Force Base Ogden US
ICAO: KHIF
IATA: HIF
Category: Medium
Scheduled Services: No

Elevation: 4789 ft
TransAlt. 18000 ft.

Airport Communications:
SALT LAKE CITY APP:25.787
SALT LAKE CITY APP:31.925
SALT LAKE CITY APP:121.1
ATIS:134.925
CLNC DEL:124.1
SALT LAKE CITY DEP:121.1
GND:121.6
419 OPS:25.21
PMSV METRO:34.23
COMD POST:38.13
PTD:139.3
TWR:127.15

KHIF Zoom In..

If you have problems with the map follow the link
https://www.worldairports.se/pages/airport.php?
ICAO=KHIF

Runways:

(A) RW 14 length 13508 ft width 200 ft
ILS 109.90 / hdg 139

(B) RW 32 length 13508 ft width 200 ft
---- / hdg 319

Location; KHIF
Day. 16 / Time. 02.58 Zulu
* Altimeter: 30.24
* Temperature: 03° c. 37.4°f.
* Wind from: 000° Speed 00 kn.
Dewpoint: -05° c.
Visibility: 10 Statute Miles.
Clouds: Clear (automated report).

KHIF 160258Z AUTO 00000KT 10SM CLR 03/M05 A3024 RMK AO2 SLP249 60000 T00311046 57005


Wind - Calm.

 
 
jpsmedia.com for Web Design worldairports.se 2018   terms of use